sensor_id;sensor_type;location;lat;lon;timestamp;temperature;humidity
52565;DHT22;38460;53.106;7.004;2023-10-19T00:00:45;8.10;99.90
52565;DHT22;38460;53.106;7.004;2023-10-19T00:03:13;8.00;99.90
52565;DHT22;38460;53.106;7.004;2023-10-19T00:05:40;8.00;99.90
52565;DHT22;38460;53.106;7.004;2023-10-19T00:08:07;8.00;99.90
52565;DHT22;38460;53.106;7.004;2023-10-19T00:10:41;8.00;99.90
52565;DHT22;38460;53.106;7.004;2023-10-19T00:13:09;7.90;99.90
52565;DHT22;38460;53.106;7.004;2023-10-19T00:15:37;7.90;99.90
52565;DHT22;38460;53.106;7.004;2023-10-19T00:18:06;7.90;99.90
52565;DHT22;38460;53.106;7.004;2023-10-19T00:20:41;7.90;99.90
52565;DHT22;38460;53.106;7.004;2023-10-19T00:23:06;7.90;99.90
52565;DHT22;38460;53.106;7.004;2023-10-19T00:25:32;7.90;99.90
52565;DHT22;38460;53.106;7.004;2023-10-19T00:28:00;7.90;99.90
52565;DHT22;38460;53.106;7.004;2023-10-19T00:30:29;7.80;99.90
52565;DHT22;38460;53.106;7.004;2023-10-19T00:32:58;7.90;99.90
52565;DHT22;38460;53.106;7.004;2023-10-19T00:35:33;7.80;99.90
52565;DHT22;38460;53.106;7.004;2023-10-19T00:38:07;7.80;99.90
52565;DHT22;38460;53.106;7.004;2023-10-19T00:40:51;7.80;99.90
52565;DHT22;38460;53.106;7.004;2023-10-19T00:43:41;7.80;99.90
52565;DHT22;38460;53.106;7.004;2023-10-19T00:48:47;7.80;99.90
52565;DHT22;38460;53.106;7.004;2023-10-19T00:51:14;7.70;99.90
52565;DHT22;38460;53.106;7.004;2023-10-19T00:53:57;7.80;99.90
52565;DHT22;38460;53.106;7.004;2023-10-19T00:56:24;7.70;99.90
52565;DHT22;38460;53.106;7.004;2023-10-19T00:58:53;7.70;99.90
52565;DHT22;38460;53.106;7.004;2023-10-19T01:01:22;7.70;99.90
52565;DHT22;38460;53.106;7.004;2023-10-19T01:03:50;7.70;99.90
52565;DHT22;38460;53.106;7.004;2023-10-19T01:06:25;7.70;99.90
52565;DHT22;38460;53.106;7.004;2023-10-19T01:08:51;7.70;99.90
52565;DHT22;38460;53.106;7.004;2023-10-19T01:11:17;7.70;99.90
52565;DHT22;38460;53.106;7.004;2023-10-19T01:13:46;7.70;99.90
52565;DHT22;38460;53.106;7.004;2023-10-19T01:16:16;7.70;99.90
52565;DHT22;38460;53.106;7.004;2023-10-19T01:18:51;7.60;99.90
52565;DHT22;38460;53.106;7.004;2023-10-19T01:21:21;7.70;99.90
52565;DHT22;38460;53.106;7.004;2023-10-19T01:23:47;7.70;99.90
52565;DHT22;38460;53.106;7.004;2023-10-19T01:26:13;7.60;99.90
52565;DHT22;38460;53.106;7.004;2023-10-19T01:28:46;7.60;99.90
52565;DHT22;38460;53.106;7.004;2023-10-19T01:31:27;7.60;99.90
52565;DHT22;38460;53.106;7.004;2023-10-19T01:33:56;7.60;99.90
52565;DHT22;38460;53.106;7.004;2023-10-19T01:36:23;7.70;99.90
52565;DHT22;38460;53.106;7.004;2023-10-19T01:38:48;7.60;99.90
52565;DHT22;38460;53.106;7.004;2023-10-19T01:41:14;7.60;99.90
52565;DHT22;38460;53.106;7.004;2023-10-19T01:43:44;7.60;99.90
52565;DHT22;38460;53.106;7.004;2023-10-19T01:46:11;7.60;99.90
52565;DHT22;38460;53.106;7.004;2023-10-19T01:48:40;7.60;99.90
52565;DHT22;38460;53.106;7.004;2023-10-19T01:51:06;7.60;99.90
52565;DHT22;38460;53.106;7.004;2023-10-19T01:53:35;7.60;99.90
52565;DHT22;38460;53.106;7.004;2023-10-19T01:56:02;7.60;99.90
52565;DHT22;38460;53.106;7.004;2023-10-19T01:58:31;7.60;99.90
52565;DHT22;38460;53.106;7.004;2023-10-19T02:01:00;7.60;99.90
52565;DHT22;38460;53.106;7.004;2023-10-19T02:03:26;7.60;99.90
52565;DHT22;38460;53.106;7.004;2023-10-19T02:05:59;7.60;99.90
52565;DHT22;38460;53.106;7.004;2023-10-19T02:08:26;7.60;99.90
52565;DHT22;38460;53.106;7.004;2023-10-19T02:10:52;7.60;99.90
52565;DHT22;38460;53.106;7.004;2023-10-19T02:13:19;7.60;99.90
52565;DHT22;38460;53.106;7.004;2023-10-19T02:15:45;7.60;99.90
52565;DHT22;38460;53.106;7.004;2023-10-19T02:18:11;7.60;99.90
52565;DHT22;38460;53.106;7.004;2023-10-19T02:20:36;7.60;99.90
52565;DHT22;38460;53.106;7.004;2023-10-19T02:23:09;7.60;99.90
52565;DHT22;38460;53.106;7.004;2023-10-19T02:25:35;7.50;99.90
52565;DHT22;38460;53.106;7.004;2023-10-19T02:28:04;7.60;99.90
52565;DHT22;38460;53.106;7.004;2023-10-19T02:30:32;7.50;99.90
52565;DHT22;38460;53.106;7.004;2023-10-19T02:32:59;7.60;99.90
52565;DHT22;38460;53.106;7.004;2023-10-19T02:35:26;7.60;99.90
52565;DHT22;38460;53.106;7.004;2023-10-19T02:37:53;7.50;99.90
52565;DHT22;38460;53.106;7.004;2023-10-19T02:40:19;7.60;99.90
52565;DHT22;38460;53.106;7.004;2023-10-19T02:42:45;7.60;99.90
52565;DHT22;38460;53.106;7.004;2023-10-19T02:45:16;7.60;99.90
52565;DHT22;38460;53.106;7.004;2023-10-19T02:47:42;7.50;99.90
52565;DHT22;38460;53.106;7.004;2023-10-19T02:50:08;7.50;99.90
52565;DHT22;38460;53.106;7.004;2023-10-19T02:52:37;7.60;99.90
52565;DHT22;38460;53.106;7.004;2023-10-19T02:55:03;7.60;99.90
52565;DHT22;38460;53.106;7.004;2023-10-19T02:57:29;7.60;99.90
52565;DHT22;38460;53.106;7.004;2023-10-19T02:59:56;7.50;99.90
52565;DHT22;38460;53.106;7.004;2023-10-19T03:02:23;7.50;99.90
52565;DHT22;38460;53.106;7.004;2023-10-19T03:04:52;7.60;99.90
52565;DHT22;38460;53.106;7.004;2023-10-19T03:07:18;7.50;99.90
52565;DHT22;38460;53.106;7.004;2023-10-19T03:09:44;7.60;99.90
52565;DHT22;38460;53.106;7.004;2023-10-19T03:12:19;7.50;99.90
52565;DHT22;38460;53.106;7.004;2023-10-19T03:14:45;7.60;99.90
52565;DHT22;38460;53.106;7.004;2023-10-19T03:17:14;7.60;99.90
52565;DHT22;38460;53.106;7.004;2023-10-19T03:19:39;7.60;99.90
52565;DHT22;38460;53.106;7.004;2023-10-19T03:22:05;7.60;99.90
52565;DHT22;38460;53.106;7.004;2023-10-19T03:24:34;7.60;99.90
52565;DHT22;38460;53.106;7.004;2023-10-19T03:27:15;7.60;99.90
52565;DHT22;38460;53.106;7.004;2023-10-19T03:29:44;7.60;99.90
52565;DHT22;38460;53.106;7.004;2023-10-19T03:32:25;7.60;99.90
52565;DHT22;38460;53.106;7.004;2023-10-19T03:35:00;7.60;99.90
52565;DHT22;38460;53.106;7.004;2023-10-19T03:37:26;7.60;99.90
52565;DHT22;38460;53.106;7.004;2023-10-19T03:39:55;7.70;99.90
52565;DHT22;38460;53.106;7.004;2023-10-19T03:42:24;7.60;99.90
52565;DHT22;38460;53.106;7.004;2023-10-19T03:44:57;7.60;99.90
52565;DHT22;38460;53.106;7.004;2023-10-19T03:47:23;7.60;99.90
52565;DHT22;38460;53.106;7.004;2023-10-19T03:49:57;7.60;99.90
52565;DHT22;38460;53.106;7.004;2023-10-19T03:52:24;7.70;99.90
52565;DHT22;38460;53.106;7.004;2023-10-19T03:54:55;7.70;99.90
52565;DHT22;38460;53.106;7.004;2023-10-19T03:57:22;7.60;99.90
52565;DHT22;38460;53.106;7.004;2023-10-19T03:59:49;7.70;99.90
52565;DHT22;38460;53.106;7.004;2023-10-19T04:02:16;7.70;99.90
52565;DHT22;38460;53.106;7.004;2023-10-19T04:04:42;7.70;99.90
52565;DHT22;38460;53.106;7.004;2023-10-19T04:07:11;7.70;99.90
52565;DHT22;38460;53.106;7.004;2023-10-19T04:09:45;7.70;99.90
52565;DHT22;38460;53.106;7.004;2023-10-19T04:12:29;7.70;99.90
52565;DHT22;38460;53.106;7.004;2023-10-19T04:14:56;7.70;99.90
52565;DHT22;38460;53.106;7.004;2023-10-19T04:17:22;7.70;99.90
52565;DHT22;38460;53.106;7.004;2023-10-19T04:19:52;7.70;99.90
52565;DHT22;38460;53.106;7.004;2023-10-19T04:22:18;7.70;99.90
52565;DHT22;38460;53.106;7.004;2023-10-19T04:24:52;7.70;99.90
52565;DHT22;38460;53.106;7.004;2023-10-19T04:27:18;7.70;99.90
52565;DHT22;38460;53.106;7.004;2023-10-19T04:29:48;7.70;99.90
52565;DHT22;38460;53.106;7.004;2023-10-19T04:32:15;7.70;99.90
52565;DHT22;38460;53.106;7.004;2023-10-19T04:34:44;7.70;99.90
52565;DHT22;38460;53.106;7.004;2023-10-19T04:37:10;7.70;99.90
52565;DHT22;38460;53.106;7.004;2023-10-19T04:39:38;7.70;99.90
52565;DHT22;38460;53.106;7.004;2023-10-19T04:42:03;7.70;99.90
52565;DHT22;38460;53.106;7.004;2023-10-19T04:44:29;7.70;99.90
52565;DHT22;38460;53.106;7.004;2023-10-19T04:46:56;7.80;99.90
52565;DHT22;38460;53.106;7.004;2023-10-19T04:49:22;7.70;99.90
52565;DHT22;38460;53.106;7.004;2023-10-19T04:51:48;7.80;99.90
52565;DHT22;38460;53.106;7.004;2023-10-19T04:54:13;7.80;99.90
52565;DHT22;38460;53.106;7.004;2023-10-19T04:56:39;7.80;99.90
52565;DHT22;38460;53.106;7.004;2023-10-19T04:59:05;7.80;99.90
52565;DHT22;38460;53.106;7.004;2023-10-19T05:01:31;7.80;99.90
52565;DHT22;38460;53.106;7.004;2023-10-19T05:03:59;7.80;99.90
52565;DHT22;38460;53.106;7.004;2023-10-19T05:06:25;7.80;99.90
52565;DHT22;38460;53.106;7.004;2023-10-19T05:08:50;7.80;99.90
52565;DHT22;38460;53.106;7.004;2023-10-19T05:11:17;7.80;99.90
52565;DHT22;38460;53.106;7.004;2023-10-19T05:13:43;7.80;99.90
52565;DHT22;38460;53.106;7.004;2023-10-19T05:16:09;7.80;99.90
52565;DHT22;38460;53.106;7.004;2023-10-19T05:18:34;7.80;99.90
52565;DHT22;38460;53.106;7.004;2023-10-19T05:21:00;7.80;99.90
52565;DHT22;38460;53.106;7.004;2023-10-19T05:23:27;7.80;99.90
52565;DHT22;38460;53.106;7.004;2023-10-19T05:25:53;7.80;99.90
52565;DHT22;38460;53.106;7.004;2023-10-19T05:28:19;7.80;99.90
52565;DHT22;38460;53.106;7.004;2023-10-19T05:30:47;7.80;99.90
52565;DHT22;38460;53.106;7.004;2023-10-19T05:33:14;7.80;99.90
52565;DHT22;38460;53.106;7.004;2023-10-19T05:35:39;7.80;99.90
52565;DHT22;38460;53.106;7.004;2023-10-19T05:38:08;7.80;99.90
52565;DHT22;38460;53.106;7.004;2023-10-19T05:40:34;7.80;99.90
52565;DHT22;38460;53.106;7.004;2023-10-19T05:43:01;7.80;99.90
52565;DHT22;38460;53.106;7.004;2023-10-19T05:45:27;7.80;99.90
52565;DHT22;38460;53.106;7.004;2023-10-19T05:47:56;7.80;99.90
52565;DHT22;38460;53.106;7.004;2023-10-19T05:50:25;7.80;99.90
52565;DHT22;38460;53.106;7.004;2023-10-19T05:52:51;7.80;99.90
52565;DHT22;38460;53.106;7.004;2023-10-19T05:55:17;7.80;99.90
52565;DHT22;38460;53.106;7.004;2023-10-19T05:57:43;7.80;99.90
52565;DHT22;38460;53.106;7.004;2023-10-19T06:00:10;7.80;99.90
52565;DHT22;38460;53.106;7.004;2023-10-19T06:02:41;7.80;99.90
52565;DHT22;38460;53.106;7.004;2023-10-19T06:05:09;7.80;99.90
52565;DHT22;38460;53.106;7.004;2023-10-19T06:07:34;7.80;99.90
52565;DHT22;38460;53.106;7.004;2023-10-19T06:10:00;7.80;99.90
52565;DHT22;38460;53.106;7.004;2023-10-19T06:12:32;7.80;99.90
52565;DHT22;38460;53.106;7.004;2023-10-19T06:14:59;7.80;99.90
52565;DHT22;38460;53.106;7.004;2023-10-19T06:17:28;7.90;99.90
52565;DHT22;38460;53.106;7.004;2023-10-19T06:19:54;7.80;99.90
52565;DHT22;38460;53.106;7.004;2023-10-19T06:22:20;7.80;99.90
52565;DHT22;38460;53.106;7.004;2023-10-19T06:24:46;7.90;99.90
52565;DHT22;38460;53.106;7.004;2023-10-19T06:27:11;7.80;99.90
52565;DHT22;38460;53.106;7.004;2023-10-19T06:29:37;7.80;99.90
52565;DHT22;38460;53.106;7.004;2023-10-19T06:32:02;7.90;99.90
52565;DHT22;38460;53.106;7.004;2023-10-19T06:34:28;7.80;99.90
52565;DHT22;38460;53.106;7.004;2023-10-19T06:36:54;7.80;99.90
52565;DHT22;38460;53.106;7.004;2023-10-19T06:39:20;7.90;99.90
52565;DHT22;38460;53.106;7.004;2023-10-19T06:41:47;7.80;99.90
52565;DHT22;38460;53.106;7.004;2023-10-19T06:44:13;7.80;99.90
52565;DHT22;38460;53.106;7.004;2023-10-19T06:46:39;7.80;99.90
52565;DHT22;38460;53.106;7.004;2023-10-19T06:49:05;7.80;99.90
52565;DHT22;38460;53.106;7.004;2023-10-19T06:51:31;7.80;99.90
52565;DHT22;38460;53.106;7.004;2023-10-19T06:53:58;7.80;99.90
52565;DHT22;38460;53.106;7.004;2023-10-19T06:56:24;7.80;99.90
52565;DHT22;38460;53.106;7.004;2023-10-19T06:58:50;7.80;99.90
52565;DHT22;38460;53.106;7.004;2023-10-19T07:01:15;7.80;99.90
52565;DHT22;38460;53.106;7.004;2023-10-19T07:03:43;7.80;99.90
52565;DHT22;38460;53.106;7.004;2023-10-19T07:06:09;7.80;99.90
52565;DHT22;38460;53.106;7.004;2023-10-19T07:08:42;7.80;99.90
52565;DHT22;38460;53.106;7.004;2023-10-19T07:11:07;7.80;99.90
52565;DHT22;38460;53.106;7.004;2023-10-19T07:13:33;7.80;99.90
52565;DHT22;38460;53.106;7.004;2023-10-19T07:15:59;7.80;99.90
52565;DHT22;38460;53.106;7.004;2023-10-19T07:18:25;7.80;99.90
52565;DHT22;38460;53.106;7.004;2023-10-19T07:20:51;7.80;99.90
52565;DHT22;38460;53.106;7.004;2023-10-19T07:23:18;7.80;99.90
52565;DHT22;38460;53.106;7.004;2023-10-19T07:25:45;7.90;99.90
52565;DHT22;38460;53.106;7.004;2023-10-19T07:28:13;7.80;99.90
52565;DHT22;38460;53.106;7.004;2023-10-19T07:30:39;7.80;99.90
52565;DHT22;38460;53.106;7.004;2023-10-19T07:33:07;7.80;99.90
52565;DHT22;38460;53.106;7.004;2023-10-19T07:35:36;7.80;99.90
52565;DHT22;38460;53.106;7.004;2023-10-19T07:38:04;7.80;99.90
52565;DHT22;38460;53.106;7.004;2023-10-19T07:40:30;7.80;99.90
52565;DHT22;38460;53.106;7.004;2023-10-19T07:42:56;7.80;99.90
52565;DHT22;38460;53.106;7.004;2023-10-19T07:45:22;7.90;99.90
52565;DHT22;38460;53.106;7.004;2023-10-19T07:47:47;7.80;99.90
52565;DHT22;38460;53.106;7.004;2023-10-19T07:50:13;7.90;99.90
52565;DHT22;38460;53.106;7.004;2023-10-19T07:52:51;7.80;99.90
52565;DHT22;38460;53.106;7.004;2023-10-19T07:55:18;7.90;99.90
52565;DHT22;38460;53.106;7.004;2023-10-19T07:57:43;7.90;99.90
52565;DHT22;38460;53.106;7.004;2023-10-19T08:00:09;7.90;99.90
52565;DHT22;38460;53.106;7.004;2023-10-19T08:02:36;7.90;99.90
52565;DHT22;38460;53.106;7.004;2023-10-19T08:05:03;7.90;99.90
52565;DHT22;38460;53.106;7.004;2023-10-19T08:07:29;7.90;99.90
52565;DHT22;38460;53.106;7.004;2023-10-19T08:09:55;7.90;99.90
52565;DHT22;38460;53.106;7.004;2023-10-19T08:12:24;7.90;99.90
52565;DHT22;38460;53.106;7.004;2023-10-19T08:14:52;7.90;99.90
52565;DHT22;38460;53.106;7.004;2023-10-19T08:17:18;7.90;99.90
52565;DHT22;38460;53.106;7.004;2023-10-19T08:19:43;7.90;99.90
52565;DHT22;38460;53.106;7.004;2023-10-19T08:22:09;7.90;99.90
52565;DHT22;38460;53.106;7.004;2023-10-19T08:24:35;7.90;99.90
52565;DHT22;38460;53.106;7.004;2023-10-19T08:27:01;7.90;99.90
52565;DHT22;38460;53.106;7.004;2023-10-19T08:29:26;7.90;99.90
52565;DHT22;38460;53.106;7.004;2023-10-19T08:31:52;7.90;99.90
52565;DHT22;38460;53.106;7.004;2023-10-19T08:34:18;7.90;99.90
52565;DHT22;38460;53.106;7.004;2023-10-19T08:36:44;7.90;99.90
52565;DHT22;38460;53.106;7.004;2023-10-19T08:39:10;7.90;99.90
52565;DHT22;38460;53.106;7.004;2023-10-19T08:41:39;7.90;99.90
52565;DHT22;38460;53.106;7.004;2023-10-19T08:44:05;7.90;99.90
52565;DHT22;38460;53.106;7.004;2023-10-19T08:46:40;7.90;99.90
52565;DHT22;38460;53.106;7.004;2023-10-19T08:49:11;7.90;99.90
52565;DHT22;38460;53.106;7.004;2023-10-19T08:51:38;8.00;99.90
52565;DHT22;38460;53.106;7.004;2023-10-19T08:54:07;7.90;99.90
52565;DHT22;38460;53.106;7.004;2023-10-19T08:56:36;8.00;99.90
52565;DHT22;38460;53.106;7.004;2023-10-19T08:59:02;8.00;99.90
52565;DHT22;38460;53.106;7.004;2023-10-19T09:01:28;8.00;99.90
52565;DHT22;38460;53.106;7.004;2023-10-19T09:03:57;8.00;99.90
52565;DHT22;38460;53.106;7.004;2023-10-19T09:06:23;8.00;99.90
52565;DHT22;38460;53.106;7.004;2023-10-19T09:08:49;8.00;99.90
52565;DHT22;38460;53.106;7.004;2023-10-19T09:11:14;8.00;99.90
52565;DHT22;38460;53.106;7.004;2023-10-19T09:13:44;8.00;99.90
52565;DHT22;38460;53.106;7.004;2023-10-19T09:16:16;8.00;99.90
52565;DHT22;38460;53.106;7.004;2023-10-19T09:18:41;8.00;99.90
52565;DHT22;38460;53.106;7.004;2023-10-19T09:21:07;8.10;99.90
52565;DHT22;38460;53.106;7.004;2023-10-19T09:23:37;8.00;99.90
52565;DHT22;38460;53.106;7.004;2023-10-19T09:26:03;8.10;99.90
52565;DHT22;38460;53.106;7.004;2023-10-19T09:28:29;8.10;99.90
52565;DHT22;38460;53.106;7.004;2023-10-19T09:30:55;8.10;99.90
52565;DHT22;38460;53.106;7.004;2023-10-19T09:33:21;8.10;99.90
52565;DHT22;38460;53.106;7.004;2023-10-19T09:35:48;8.10;99.90
52565;DHT22;38460;53.106;7.004;2023-10-19T09:38:17;8.10;99.90
52565;DHT22;38460;53.106;7.004;2023-10-19T09:40:47;8.10;99.90
52565;DHT22;38460;53.106;7.004;2023-10-19T09:43:22;8.10;99.90
52565;DHT22;38460;53.106;7.004;2023-10-19T09:45:51;8.20;99.90
52565;DHT22;38460;53.106;7.004;2023-10-19T09:48:19;8.20;99.90
52565;DHT22;38460;53.106;7.004;2023-10-19T09:50:48;8.20;99.90
52565;DHT22;38460;53.106;7.004;2023-10-19T09:53:17;8.20;99.90
52565;DHT22;38460;53.106;7.004;2023-10-19T09:55:43;8.20;99.90
52565;DHT22;38460;53.106;7.004;2023-10-19T10:00:36;8.20;99.90
52565;DHT22;38460;53.106;7.004;2023-10-19T10:03:01;8.30;99.90
52565;DHT22;38460;53.106;7.004;2023-10-19T10:10:44;8.30;99.90
52565;DHT22;38460;53.106;7.004;2023-10-19T10:15:56;8.40;99.90
52565;DHT22;38460;53.106;7.004;2023-10-19T10:18:26;8.40;99.90
52565;DHT22;38460;53.106;7.004;2023-10-19T10:26:13;8.50;99.90
52565;DHT22;38460;53.106;7.004;2023-10-19T10:28:40;8.50;99.90
52565;DHT22;38460;53.106;7.004;2023-10-19T10:33:38;8.50;99.90
52565;DHT22;38460;53.106;7.004;2023-10-19T10:36:07;8.50;99.90
52565;DHT22;38460;53.106;7.004;2023-10-19T10:38:36;8.60;99.90
52565;DHT22;38460;53.106;7.004;2023-10-19T10:41:02;8.60;99.90
52565;DHT22;38460;53.106;7.004;2023-10-19T10:43:28;8.60;99.90
52565;DHT22;38460;53.106;7.004;2023-10-19T10:46:06;8.60;99.90
52565;DHT22;38460;53.106;7.004;2023-10-19T10:48:40;8.60;99.90
52565;DHT22;38460;53.106;7.004;2023-10-19T10:51:19;8.60;99.90
52565;DHT22;38460;53.106;7.004;2023-10-19T10:53:52;8.70;99.90
52565;DHT22;38460;53.106;7.004;2023-10-19T10:56:18;8.70;99.90
52565;DHT22;38460;53.106;7.004;2023-10-19T10:58:44;8.70;99.90
52565;DHT22;38460;53.106;7.004;2023-10-19T11:01:10;8.70;99.90
52565;DHT22;38460;53.106;7.004;2023-10-19T11:03:42;8.70;99.90
52565;DHT22;38460;53.106;7.004;2023-10-19T11:06:08;8.70;99.90
52565;DHT22;38460;53.106;7.004;2023-10-19T11:08:34;8.80;99.90
52565;DHT22;38460;53.106;7.004;2023-10-19T11:11:01;8.80;99.90
52565;DHT22;38460;53.106;7.004;2023-10-19T11:13:27;8.80;99.90
52565;DHT22;38460;53.106;7.004;2023-10-19T11:15:55;8.90;99.90
52565;DHT22;38460;53.106;7.004;2023-10-19T11:18:30;8.90;99.90
52565;DHT22;38460;53.106;7.004;2023-10-19T11:20:57;8.80;99.90
52565;DHT22;38460;53.106;7.004;2023-10-19T11:26:20;8.90;99.90
52565;DHT22;38460;53.106;7.004;2023-10-19T11:28:46;8.90;99.90
52565;DHT22;38460;53.106;7.004;2023-10-19T11:31:20;8.90;99.90
52565;DHT22;38460;53.106;7.004;2023-10-19T11:33:50;8.90;99.90
52565;DHT22;38460;53.106;7.004;2023-10-19T11:36:19;8.90;99.90
52565;DHT22;38460;53.106;7.004;2023-10-19T11:38:46;8.90;99.90
52565;DHT22;38460;53.106;7.004;2023-10-19T11:41:12;8.80;99.90
52565;DHT22;38460;53.106;7.004;2023-10-19T11:43:42;8.90;99.90
52565;DHT22;38460;53.106;7.004;2023-10-19T11:46:09;8.80;99.90
52565;DHT22;38460;53.106;7.004;2023-10-19T11:48:35;8.90;99.90
52565;DHT22;38460;53.106;7.004;2023-10-19T11:51:01;8.90;99.90
52565;DHT22;38460;53.106;7.004;2023-10-19T11:53:35;8.80;99.90
52565;DHT22;38460;53.106;7.004;2023-10-19T11:56:02;8.80;99.90
52565;DHT22;38460;53.106;7.004;2023-10-19T11:58:32;8.80;99.90
52565;DHT22;38460;53.106;7.004;2023-10-19T12:01:03;8.80;99.90
52565;DHT22;38460;53.106;7.004;2023-10-19T12:03:31;8.80;99.90
52565;DHT22;38460;53.106;7.004;2023-10-19T12:05:56;8.80;99.90
52565;DHT22;38460;53.106;7.004;2023-10-19T12:08:22;8.80;99.90
52565;DHT22;38460;53.106;7.004;2023-10-19T12:10:49;8.80;99.90
52565;DHT22;38460;53.106;7.004;2023-10-19T12:13:14;8.80;99.90
52565;DHT22;38460;53.106;7.004;2023-10-19T12:15:41;8.90;99.90
52565;DHT22;38460;53.106;7.004;2023-10-19T12:18:07;8.90;99.90
52565;DHT22;38460;53.106;7.004;2023-10-19T12:20:33;8.90;99.90
52565;DHT22;38460;53.106;7.004;2023-10-19T12:23:00;8.90;99.90
52565;DHT22;38460;53.106;7.004;2023-10-19T12:25:26;8.90;99.90
52565;DHT22;38460;53.106;7.004;2023-10-19T12:27:56;8.90;99.90
52565;DHT22;38460;53.106;7.004;2023-10-19T12:30:22;8.90;99.90
52565;DHT22;38460;53.106;7.004;2023-10-19T12:32:54;8.90;99.90
52565;DHT22;38460;53.106;7.004;2023-10-19T12:35:20;8.90;99.90
52565;DHT22;38460;53.106;7.004;2023-10-19T12:37:50;8.90;99.90
52565;DHT22;38460;53.106;7.004;2023-10-19T12:40:18;8.90;99.90
52565;DHT22;38460;53.106;7.004;2023-10-19T12:42:54;8.90;99.90
52565;DHT22;38460;53.106;7.004;2023-10-19T12:45:24;8.90;99.90
52565;DHT22;38460;53.106;7.004;2023-10-19T12:47:50;8.90;99.90
52565;DHT22;38460;53.106;7.004;2023-10-19T12:50:21;8.90;99.90
52565;DHT22;38460;53.106;7.004;2023-10-19T12:52:49;8.90;99.90
52565;DHT22;38460;53.106;7.004;2023-10-19T12:55:15;8.80;99.90
52565;DHT22;38460;53.106;7.004;2023-10-19T12:57:41;8.90;99.90
52565;DHT22;38460;53.106;7.004;2023-10-19T13:00:07;8.90;99.90
52565;DHT22;38460;53.106;7.004;2023-10-19T13:02:49;8.80;99.90
52565;DHT22;38460;53.106;7.004;2023-10-19T13:05:15;8.90;99.90
52565;DHT22;38460;53.106;7.004;2023-10-19T13:07:44;8.80;99.90
52565;DHT22;38460;53.106;7.004;2023-10-19T13:10:09;8.80;99.90
52565;DHT22;38460;53.106;7.004;2023-10-19T13:12:37;8.80;99.90
52565;DHT22;38460;53.106;7.004;2023-10-19T13:15:03;8.80;99.90
52565;DHT22;38460;53.106;7.004;2023-10-19T13:17:28;8.80;99.90
52565;DHT22;38460;53.106;7.004;2023-10-19T13:19:54;8.80;99.90
52565;DHT22;38460;53.106;7.004;2023-10-19T13:22:23;8.80;99.90
52565;DHT22;38460;53.106;7.004;2023-10-19T13:24:50;8.80;99.90
52565;DHT22;38460;53.106;7.004;2023-10-19T13:27:16;8.80;99.90
52565;DHT22;38460;53.106;7.004;2023-10-19T13:29:41;8.80;99.90
52565;DHT22;38460;53.106;7.004;2023-10-19T13:32:07;8.80;99.90
52565;DHT22;38460;53.106;7.004;2023-10-19T13:34:33;8.80;99.90
52565;DHT22;38460;53.106;7.004;2023-10-19T13:36:58;8.90;99.90
52565;DHT22;38460;53.106;7.004;2023-10-19T13:39:24;8.80;99.90
52565;DHT22;38460;53.106;7.004;2023-10-19T13:41:51;8.80;99.90
52565;DHT22;38460;53.106;7.004;2023-10-19T13:44:18;8.80;99.90
52565;DHT22;38460;53.106;7.004;2023-10-19T13:46:46;8.80;99.90
52565;DHT22;38460;53.106;7.004;2023-10-19T13:49:12;8.80;99.90
52565;DHT22;38460;53.106;7.004;2023-10-19T13:51:37;8.80;99.90
52565;DHT22;38460;53.106;7.004;2023-10-19T13:54:04;8.80;99.90
52565;DHT22;38460;53.106;7.004;2023-10-19T13:56:30;8.80;99.90
52565;DHT22;38460;53.106;7.004;2023-10-19T13:58:56;8.80;99.90
52565;DHT22;38460;53.106;7.004;2023-10-19T14:01:22;8.80;99.90
52565;DHT22;38460;53.106;7.004;2023-10-19T14:03:51;8.80;99.90
52565;DHT22;38460;53.106;7.004;2023-10-19T14:06:17;8.80;99.90
52565;DHT22;38460;53.106;7.004;2023-10-19T14:08:42;8.80;99.90
52565;DHT22;38460;53.106;7.004;2023-10-19T14:11:08;8.80;99.90
52565;DHT22;38460;53.106;7.004;2023-10-19T14:13:34;8.80;99.90
52565;DHT22;38460;53.106;7.004;2023-10-19T14:16:04;8.80;99.90
52565;DHT22;38460;53.106;7.004;2023-10-19T14:18:30;8.80;99.90
52565;DHT22;38460;53.106;7.004;2023-10-19T14:20:56;8.80;99.90
52565;DHT22;38460;53.106;7.004;2023-10-19T14:23:22;8.80;99.90
52565;DHT22;38460;53.106;7.004;2023-10-19T14:25:49;8.80;99.90
52565;DHT22;38460;53.106;7.004;2023-10-19T14:28:15;8.80;99.90
52565;DHT22;38460;53.106;7.004;2023-10-19T14:30:41;8.80;99.90
52565;DHT22;38460;53.106;7.004;2023-10-19T14:33:06;8.80;99.90
52565;DHT22;38460;53.106;7.004;2023-10-19T14:35:36;8.80;99.90
52565;DHT22;38460;53.106;7.004;2023-10-19T14:38:04;8.80;99.90
52565;DHT22;38460;53.106;7.004;2023-10-19T14:40:31;8.80;99.90
52565;DHT22;38460;53.106;7.004;2023-10-19T14:42:57;8.80;99.90
52565;DHT22;38460;53.106;7.004;2023-10-19T14:45:26;8.80;99.90
52565;DHT22;38460;53.106;7.004;2023-10-19T14:47:55;8.80;99.90
52565;DHT22;38460;53.106;7.004;2023-10-19T14:50:22;8.80;99.90
52565;DHT22;38460;53.106;7.004;2023-10-19T14:52:48;8.70;99.90
52565;DHT22;38460;53.106;7.004;2023-10-19T14:55:14;8.70;99.90
52565;DHT22;38460;53.106;7.004;2023-10-19T14:57:41;8.70;99.90
52565;DHT22;38460;53.106;7.004;2023-10-19T15:00:08;8.70;99.90
52565;DHT22;38460;53.106;7.004;2023-10-19T15:02:49;8.70;99.90
52565;DHT22;38460;53.106;7.004;2023-10-19T15:05:16;8.70;99.90
52565;DHT22;38460;53.106;7.004;2023-10-19T15:07:42;8.70;99.90
52565;DHT22;38460;53.106;7.004;2023-10-19T15:10:09;8.70;99.90
52565;DHT22;38460;53.106;7.004;2023-10-19T15:12:36;8.70;99.90
52565;DHT22;38460;53.106;7.004;2023-10-19T15:15:01;8.70;99.90
52565;DHT22;38460;53.106;7.004;2023-10-19T15:17:27;8.70;99.90
52565;DHT22;38460;53.106;7.004;2023-10-19T15:19:53;8.70;99.90
52565;DHT22;38460;53.106;7.004;2023-10-19T15:22:18;8.70;99.90
52565;DHT22;38460;53.106;7.004;2023-10-19T15:24:44;8.70;99.90
52565;DHT22;38460;53.106;7.004;2023-10-19T15:27:10;8.70;99.90
52565;DHT22;38460;53.106;7.004;2023-10-19T15:29:35;8.70;99.90
52565;DHT22;38460;53.106;7.004;2023-10-19T15:32:01;8.70;99.90
52565;DHT22;38460;53.106;7.004;2023-10-19T15:34:26;8.70;99.90
52565;DHT22;38460;53.106;7.004;2023-10-19T15:36:54;8.70;99.90
52565;DHT22;38460;53.106;7.004;2023-10-19T15:39:20;8.70;99.90
52565;DHT22;38460;53.106;7.004;2023-10-19T15:41:46;8.70;99.90
52565;DHT22;38460;53.106;7.004;2023-10-19T15:44:12;8.70;99.90
52565;DHT22;38460;53.106;7.004;2023-10-19T15:46:37;8.70;99.90
52565;DHT22;38460;53.106;7.004;2023-10-19T15:49:05;8.60;99.90
52565;DHT22;38460;53.106;7.004;2023-10-19T15:51:34;8.60;99.90
52565;DHT22;38460;53.106;7.004;2023-10-19T15:54:00;8.60;99.90
52565;DHT22;38460;53.106;7.004;2023-10-19T15:56:28;8.70;99.90
52565;DHT22;38460;53.106;7.004;2023-10-19T15:58:54;8.60;99.90
52565;DHT22;38460;53.106;7.004;2023-10-19T16:01:19;8.70;99.90
52565;DHT22;38460;53.106;7.004;2023-10-19T16:03:45;8.60;99.90
52565;DHT22;38460;53.106;7.004;2023-10-19T16:06:11;8.60;99.90
52565;DHT22;38460;53.106;7.004;2023-10-19T16:08:36;8.70;99.90
52565;DHT22;38460;53.106;7.004;2023-10-19T16:11:03;8.60;99.90